sensor_id;sensor_type;location;lat;lon;timestamp;temperature;humidity
12845;DHT22;68700;48.534;9.196;2024-03-23T00:52:49;7.10;1.00
12845;DHT22;68700;48.534;9.196;2024-03-23T00:56:10;7.00;1.00
12845;DHT22;68700;48.534;9.196;2024-03-23T00:59:31;6.60;1.00
12845;DHT22;68700;48.534;9.196;2024-03-23T01:02:53;6.40;1.00
12845;DHT22;68700;48.534;9.196;2024-03-23T01:06:15;6.10;1.00
12845;DHT22;68700;48.534;9.196;2024-03-23T01:09:37;5.90;1.00
12845;DHT22;68700;48.534;9.196;2024-03-23T01:12:59;5.70;1.00
12845;DHT22;68700;48.534;9.196;2024-03-23T01:16:21;5.60;1.00
12845;DHT22;68700;48.534;9.196;2024-03-23T01:19:43;5.50;2.10
12845;DHT22;68700;48.534;9.196;2024-03-23T01:23:05;5.40;14.30
12845;DHT22;68700;48.534;9.196;2024-03-23T01:26:28;5.40;44.90
12845;DHT22;68700;48.534;9.196;2024-03-23T01:29:49;5.40;99.90
12845;DHT22;68700;48.534;9.196;2024-03-23T01:33:12;5.40;99.90
12845;DHT22;68700;48.534;9.196;2024-03-23T01:36:33;5.50;99.90
12845;DHT22;68700;48.534;9.196;2024-03-23T01:39:55;5.60;99.90
12845;DHT22;68700;48.534;9.196;2024-03-23T01:43:17;5.60;99.90
12845;DHT22;68700;48.534;9.196;2024-03-23T01:46:39;5.70;99.90
12845;DHT22;68700;48.534;9.196;2024-03-23T01:50:02;5.60;99.90
12845;DHT22;68700;48.534;9.196;2024-03-23T01:53:24;5.60;99.90
12845;DHT22;68700;48.534;9.196;2024-03-23T01:56:46;5.60;99.90
12845;DHT22;68700;48.534;9.196;2024-03-23T02:00:12;5.70;99.90
12845;DHT22;68700;48.534;9.196;2024-03-23T02:03:34;5.90;99.90
12845;DHT22;68700;48.534;9.196;2024-03-23T02:06:56;6.00;99.90
12845;DHT22;68700;48.534;9.196;2024-03-23T02:10:18;6.20;99.90
12845;DHT22;68700;48.534;9.196;2024-03-23T02:13:39;6.30;99.90
12845;DHT22;68700;48.534;9.196;2024-03-23T02:17:02;6.40;99.90
12845;DHT22;68700;48.534;9.196;2024-03-23T02:20:23;6.40;83.50
12845;DHT22;68700;48.534;9.196;2024-03-23T02:23:46;6.50;74.10
12845;DHT22;68700;48.534;9.196;2024-03-23T02:27:07;6.60;82.80
12845;DHT22;68700;48.534;9.196;2024-03-23T02:30:28;6.60;80.60
12845;DHT22;68700;48.534;9.196;2024-03-23T02:33:50;6.70;81.50
12845;DHT22;68700;48.534;9.196;2024-03-23T02:37:12;6.80;99.90
12845;DHT22;68700;48.534;9.196;2024-03-23T02:40:35;6.80;13.60
12845;DHT22;68700;48.534;9.196;2024-03-23T02:43:57;6.70;1.30
12845;DHT22;68700;48.534;9.196;2024-03-23T02:47:19;6.60;1.00
12845;DHT22;68700;48.534;9.196;2024-03-23T02:50:41;6.50;1.00
12845;DHT22;68700;48.534;9.196;2024-03-23T02:54:02;6.50;1.00
12845;DHT22;68700;48.534;9.196;2024-03-23T02:57:25;6.40;7.50
12845;DHT22;68700;48.534;9.196;2024-03-23T03:00:47;6.50;23.10
12845;DHT22;68700;48.534;9.196;2024-03-23T03:04:09;6.40;11.50
12845;DHT22;68700;48.534;9.196;2024-03-23T03:07:31;6.40;15.50
12845;DHT22;68700;48.534;9.196;2024-03-23T03:10:52;6.30;31.30
12845;DHT22;68700;48.534;9.196;2024-03-23T03:14:14;6.30;99.90
12845;DHT22;68700;48.534;9.196;2024-03-23T03:17:36;6.30;99.30
12845;DHT22;68700;48.534;9.196;2024-03-23T03:20:58;6.40;99.90
12845;DHT22;68700;48.534;9.196;2024-03-23T03:24:19;6.50;99.90
12845;DHT22;68700;48.534;9.196;2024-03-23T03:27:41;6.70;99.90
12845;DHT22;68700;48.534;9.196;2024-03-23T03:31:03;6.90;99.90
12845;DHT22;68700;48.534;9.196;2024-03-23T03:34:25;7.10;99.90
12845;DHT22;68700;48.534;9.196;2024-03-23T03:37:46;7.10;99.90
12845;DHT22;68700;48.534;9.196;2024-03-23T03:41:07;7.00;42.80
12845;DHT22;68700;48.534;9.196;2024-03-23T03:44:29;6.80;14.80
12845;DHT22;68700;48.534;9.196;2024-03-23T03:47:52;6.70;99.90
12845;DHT22;68700;48.534;9.196;2024-03-23T03:51:13;6.60;96.80
12845;DHT22;68700;48.534;9.196;2024-03-23T03:54:35;6.80;99.90
12845;DHT22;68700;48.534;9.196;2024-03-23T03:57:57;6.90;99.90
12845;DHT22;68700;48.534;9.196;2024-03-23T04:01:18;7.30;99.90
12845;DHT22;68700;48.534;9.196;2024-03-23T04:04:41;7.80;99.90
12845;DHT22;68700;48.534;9.196;2024-03-23T04:08:03;8.40;99.90
12845;DHT22;68700;48.534;9.196;2024-03-23T04:11:25;8.90;99.90
12845;DHT22;68700;48.534;9.196;2024-03-23T04:14:46;9.50;1.00
12845;DHT22;68700;48.534;9.196;2024-03-23T04:18:08;10.10;1.00
12845;DHT22;68700;48.534;9.196;2024-03-23T04:21:33;10.20;1.00
12845;DHT22;68700;48.534;9.196;2024-03-23T04:24:55;10.40;1.00
12845;DHT22;68700;48.534;9.196;2024-03-23T04:28:16;10.50;1.00
12845;DHT22;68700;48.534;9.196;2024-03-23T04:31:38;10.60;1.00
12845;DHT22;68700;48.534;9.196;2024-03-23T04:34:59;10.60;1.00
12845;DHT22;68700;48.534;9.196;2024-03-23T04:38:22;10.70;1.00
12845;DHT22;68700;48.534;9.196;2024-03-23T04:41:44;10.90;1.00
12845;DHT22;68700;48.534;9.196;2024-03-23T04:45:06;10.90;1.00
12845;DHT22;68700;48.534;9.196;2024-03-23T04:48:28;11.40;1.00
12845;DHT22;68700;48.534;9.196;2024-03-23T04:51:50;11.80;1.00
12845;DHT22;68700;48.534;9.196;2024-03-23T04:55:13;12.00;1.00
12845;DHT22;68700;48.534;9.196;2024-03-23T04:58:36;12.00;1.00
12845;DHT22;68700;48.534;9.196;2024-03-23T05:01:57;12.00;1.00
12845;DHT22;68700;48.534;9.196;2024-03-23T05:05:20;11.90;1.00
12845;DHT22;68700;48.534;9.196;2024-03-23T05:08:41;11.80;1.00
12845;DHT22;68700;48.534;9.196;2024-03-23T05:12:04;11.80;1.00
12845;DHT22;68700;48.534;9.196;2024-03-23T05:15:26;11.80;1.00
12845;DHT22;68700;48.534;9.196;2024-03-23T05:18:48;11.60;1.00
12845;DHT22;68700;48.534;9.196;2024-03-23T05:22:10;11.50;1.00
12845;DHT22;68700;48.534;9.196;2024-03-23T05:25:32;11.40;1.00
12845;DHT22;68700;48.534;9.196;2024-03-23T05:28:54;11.10;1.00
12845;DHT22;68700;48.534;9.196;2024-03-23T05:32:15;11.10;1.00
12845;DHT22;68700;48.534;9.196;2024-03-23T05:35:36;10.90;1.00
12845;DHT22;68700;48.534;9.196;2024-03-23T05:38:58;10.90;1.00
12845;DHT22;68700;48.534;9.196;2024-03-23T05:42:20;10.80;1.00
12845;DHT22;68700;48.534;9.196;2024-03-23T05:45:43;10.70;77.50
12845;DHT22;68700;48.534;9.196;2024-03-23T05:49:04;10.30;99.90
12845;DHT22;68700;48.534;9.196;2024-03-23T05:52:26;10.10;99.90
12845;DHT22;68700;48.534;9.196;2024-03-23T05:55:48;9.80;99.90
12845;DHT22;68700;48.534;9.196;2024-03-23T05:59:08;9.70;99.90
12845;DHT22;68700;48.534;9.196;2024-03-23T06:02:31;9.50;99.90
12845;DHT22;68700;48.534;9.196;2024-03-23T06:05:53;9.40;99.90
12845;DHT22;68700;48.534;9.196;2024-03-23T06:09:14;9.40;99.90
12845;DHT22;68700;48.534;9.196;2024-03-23T06:12:36;9.40;99.90
12845;DHT22;68700;48.534;9.196;2024-03-23T06:15:58;9.40;99.90
12845;DHT22;68700;48.534;9.196;2024-03-23T06:19:21;9.40;99.90
12845;DHT22;68700;48.534;9.196;2024-03-23T06:22:42;9.40;99.90
12845;DHT22;68700;48.534;9.196;2024-03-23T06:26:04;9.40;99.90
12845;DHT22;68700;48.534;9.196;2024-03-23T06:29:28;9.40;99.90
12845;DHT22;68700;48.534;9.196;2024-03-23T06:32:48;9.40;99.90
12845;DHT22;68700;48.534;9.196;2024-03-23T06:36:12;9.40;99.90
12845;DHT22;68700;48.534;9.196;2024-03-23T06:39:33;9.30;99.90
12845;DHT22;68700;48.534;9.196;2024-03-23T06:42:55;9.30;99.90
12845;DHT22;68700;48.534;9.196;2024-03-23T06:46:16;9.20;74.90
12845;DHT22;68700;48.534;9.196;2024-03-23T06:49:38;9.00;22.80
12845;DHT22;68700;48.534;9.196;2024-03-23T06:53:01;9.00;1.00
12845;DHT22;68700;48.534;9.196;2024-03-23T06:56:26;9.00;1.00
12845;DHT22;68700;48.534;9.196;2024-03-23T06:59:47;8.90;28.50
12845;DHT22;68700;48.534;9.196;2024-03-23T07:03:09;8.90;35.00
12845;DHT22;68700;48.534;9.196;2024-03-23T07:06:31;8.90;1.00
12845;DHT22;68700;48.534;9.196;2024-03-23T07:09:54;8.80;1.00
12845;DHT22;68700;48.534;9.196;2024-03-23T07:13:16;8.80;1.00
12845;DHT22;68700;48.534;9.196;2024-03-23T07:16:38;8.90;1.00
12845;DHT22;68700;48.534;9.196;2024-03-23T07:19:59;9.00;1.00
12845;DHT22;68700;48.534;9.196;2024-03-23T07:23:25;8.90;1.00
12845;DHT22;68700;48.534;9.196;2024-03-23T07:26:48;8.90;1.00
12845;DHT22;68700;48.534;9.196;2024-03-23T07:30:11;8.90;1.00
12845;DHT22;68700;48.534;9.196;2024-03-23T07:33:33;9.00;1.00
12845;DHT22;68700;48.534;9.196;2024-03-23T07:36:54;9.20;1.00
12845;DHT22;68700;48.534;9.196;2024-03-23T07:40:16;9.10;1.00
12845;DHT22;68700;48.534;9.196;2024-03-23T07:43:40;9.20;1.00
12845;DHT22;68700;48.534;9.196;2024-03-23T07:47:01;9.30;1.00
12845;DHT22;68700;48.534;9.196;2024-03-23T07:50:23;9.30;1.00
12845;DHT22;68700;48.534;9.196;2024-03-23T07:53:45;9.30;1.00
12845;DHT22;68700;48.534;9.196;2024-03-23T07:57:08;9.30;1.00
12845;DHT22;68700;48.534;9.196;2024-03-23T08:00:33;9.30;1.00
12845;DHT22;68700;48.534;9.196;2024-03-23T08:03:54;9.50;1.00
12845;DHT22;68700;48.534;9.196;2024-03-23T08:07:15;9.60;1.00
12845;DHT22;68700;48.534;9.196;2024-03-23T08:10:37;9.50;1.00
12845;DHT22;68700;48.534;9.196;2024-03-23T08:14:07;9.40;1.00
12845;DHT22;68700;48.534;9.196;2024-03-23T08:17:30;9.40;1.00
12845;DHT22;68700;48.534;9.196;2024-03-23T08:20:57;8.70;1.00
12845;DHT22;68700;48.534;9.196;2024-03-23T08:24:19;8.50;1.00
12845;DHT22;68700;48.534;9.196;2024-03-23T08:27:41;8.50;1.00
12845;DHT22;68700;48.534;9.196;2024-03-23T08:31:05;8.50;1.00
12845;DHT22;68700;48.534;9.196;2024-03-23T08:34:28;8.70;1.00
12845;DHT22;68700;48.534;9.196;2024-03-23T08:37:50;8.90;1.00
12845;DHT22;68700;48.534;9.196;2024-03-23T08:41:11;9.00;1.00
12845;DHT22;68700;48.534;9.196;2024-03-23T08:44:33;9.00;1.00
12845;DHT22;68700;48.534;9.196;2024-03-23T08:47:56;9.30;1.00
12845;DHT22;68700;48.534;9.196;2024-03-23T08:51:19;9.30;1.00
12845;DHT22;68700;48.534;9.196;2024-03-23T08:54:40;9.30;1.00
12845;DHT22;68700;48.534;9.196;2024-03-23T08:58:01;9.10;1.00
12845;DHT22;68700;48.534;9.196;2024-03-23T09:01:24;9.10;1.00
12845;DHT22;68700;48.534;9.196;2024-03-23T09:04:46;9.30;1.00
12845;DHT22;68700;48.534;9.196;2024-03-23T09:08:09;9.50;1.00
12845;DHT22;68700;48.534;9.196;2024-03-23T09:11:31;9.60;1.00
12845;DHT22;68700;48.534;9.196;2024-03-23T09:14:52;9.80;1.00
12845;DHT22;68700;48.534;9.196;2024-03-23T09:18:14;10.00;1.00
12845;DHT22;68700;48.534;9.196;2024-03-23T09:21:36;9.90;1.00
12845;DHT22;68700;48.534;9.196;2024-03-23T09:24:58;9.40;1.00
12845;DHT22;68700;48.534;9.196;2024-03-23T09:28:20;9.40;1.00
12845;DHT22;68700;48.534;9.196;2024-03-23T09:31:42;9.60;1.00
12845;DHT22;68700;48.534;9.196;2024-03-23T09:35:04;10.10;99.90
12845;DHT22;68700;48.534;9.196;2024-03-23T09:38:26;10.40;99.90
12845;DHT22;68700;48.534;9.196;2024-03-23T09:41:49;11.10;99.90
12845;DHT22;68700;48.534;9.196;2024-03-23T09:45:16;12.10;99.90
12845;DHT22;68700;48.534;9.196;2024-03-23T09:48:38;13.80;99.90
12845;DHT22;68700;48.534;9.196;2024-03-23T09:52:00;13.60;99.90
12845;DHT22;68700;48.534;9.196;2024-03-23T09:55:22;13.80;99.90
12845;DHT22;68700;48.534;9.196;2024-03-23T09:58:46;13.50;99.90
12845;DHT22;68700;48.534;9.196;2024-03-23T10:02:07;14.50;99.90
12845;DHT22;68700;48.534;9.196;2024-03-23T10:05:31;12.40;99.90
12845;DHT22;68700;48.534;9.196;2024-03-23T10:08:52;12.10;99.90
12845;DHT22;68700;48.534;9.196;2024-03-23T10:12:18;11.50;99.90
12845;DHT22;68700;48.534;9.196;2024-03-23T10:15:40;11.80;99.90
12845;DHT22;68700;48.534;9.196;2024-03-23T10:19:02;11.40;99.90
12845;DHT22;68700;48.534;9.196;2024-03-23T10:22:24;11.70;1.00
12845;DHT22;68700;48.534;9.196;2024-03-23T10:25:45;13.00;99.90
12845;DHT22;68700;48.534;9.196;2024-03-23T10:29:06;14.60;99.90
12845;DHT22;68700;48.534;9.196;2024-03-23T10:32:32;13.50;99.90
12845;DHT22;68700;48.534;9.196;2024-03-23T10:35:53;13.50;99.90
12845;DHT22;68700;48.534;9.196;2024-03-23T10:39:16;14.60;99.90
12845;DHT22;68700;48.534;9.196;2024-03-23T10:42:38;15.10;99.90
12845;DHT22;68700;48.534;9.196;2024-03-23T10:45:59;13.40;99.90
12845;DHT22;68700;48.534;9.196;2024-03-23T10:49:22;13.40;99.90
12845;DHT22;68700;48.534;9.196;2024-03-23T10:52:47;14.20;99.90
12845;DHT22;68700;48.534;9.196;2024-03-23T10:56:11;13.40;99.90
12845;DHT22;68700;48.534;9.196;2024-03-23T10:59:35;12.50;99.90
12845;DHT22;68700;48.534;9.196;2024-03-23T11:02:58;11.20;99.90
12845;DHT22;68700;48.534;9.196;2024-03-23T11:06:39;9.60;1.00
12845;DHT22;68700;48.534;9.196;2024-03-23T11:10:02;7.30;1.00
12845;DHT22;68700;48.534;9.196;2024-03-23T11:13:23;6.40;1.00
12845;DHT22;68700;48.534;9.196;2024-03-23T11:16:45;6.20;1.00
12845;DHT22;68700;48.534;9.196;2024-03-23T11:20:07;6.50;1.00
12845;DHT22;68700;48.534;9.196;2024-03-23T11:23:31;8.00;1.00
12845;DHT22;68700;48.534;9.196;2024-03-23T11:26:52;9.40;1.00
12845;DHT22;68700;48.534;9.196;2024-03-23T11:30:18;10.30;1.00
12845;DHT22;68700;48.534;9.196;2024-03-23T11:33:39;10.20;1.00
12845;DHT22;68700;48.534;9.196;2024-03-23T11:37:04;8.80;1.00
12845;DHT22;68700;48.534;9.196;2024-03-23T11:40:27;8.50;1.00
12845;DHT22;68700;48.534;9.196;2024-03-23T11:43:49;8.40;1.00
12845;DHT22;68700;48.534;9.196;2024-03-23T11:47:11;8.40;1.00
12845;DHT22;68700;48.534;9.196;2024-03-23T11:50:32;8.40;1.00
12845;DHT22;68700;48.534;9.196;2024-03-23T11:53:54;8.50;99.90
12845;DHT22;68700;48.534;9.196;2024-03-23T11:57:30;8.40;99.90
12845;DHT22;68700;48.534;9.196;2024-03-23T12:00:55;8.40;99.90
12845;DHT22;68700;48.534;9.196;2024-03-23T12:04:25;8.30;99.90
12845;DHT22;68700;48.534;9.196;2024-03-23T12:07:47;8.00;99.90
12845;DHT22;68700;48.534;9.196;2024-03-23T12:11:10;7.80;99.90
12845;DHT22;68700;48.534;9.196;2024-03-23T12:14:35;7.80;99.90
12845;DHT22;68700;48.534;9.196;2024-03-23T12:18:06;7.70;99.90
12845;DHT22;68700;48.534;9.196;2024-03-23T12:21:28;8.00;99.90
12845;DHT22;68700;48.534;9.196;2024-03-23T12:24:50;8.10;1.00
12845;DHT22;68700;48.534;9.196;2024-03-23T12:28:12;8.10;99.90
12845;DHT22;68700;48.534;9.196;2024-03-23T12:31:35;7.90;1.00
12845;DHT22;68700;48.534;9.196;2024-03-23T12:34:57;8.10;1.00
12845;DHT22;68700;48.534;9.196;2024-03-23T12:38:18;7.70;1.00
12845;DHT22;68700;48.534;9.196;2024-03-23T12:41:40;7.30;1.00
12845;DHT22;68700;48.534;9.196;2024-03-23T12:45:02;7.20;1.00
12845;DHT22;68700;48.534;9.196;2024-03-23T12:48:25;7.10;1.00
12845;DHT22;68700;48.534;9.196;2024-03-23T12:51:53;9.10;1.00
12845;DHT22;68700;48.534;9.196;2024-03-23T12:55:15;10.20;99.90
12845;DHT22;68700;48.534;9.196;2024-03-23T12:58:37;11.00;99.90
12845;DHT22;68700;48.534;9.196;2024-03-23T13:01:57;10.50;99.90
12845;DHT22;68700;48.534;9.196;2024-03-23T13:05:21;9.40;99.90
12845;DHT22;68700;48.534;9.196;2024-03-23T13:08:43;8.60;1.00
12845;DHT22;68700;48.534;9.196;2024-03-23T13:12:06;8.60;1.00
12845;DHT22;68700;48.534;9.196;2024-03-23T13:15:27;9.40;1.00
12845;DHT22;68700;48.534;9.196;2024-03-23T13:18:49;9.60;1.00
12845;DHT22;68700;48.534;9.196;2024-03-23T13:22:11;9.10;1.00
12845;DHT22;68700;48.534;9.196;2024-03-23T13:25:33;9.40;1.00
12845;DHT22;68700;48.534;9.196;2024-03-23T13:28:54;10.40;99.90
12845;DHT22;68700;48.534;9.196;2024-03-23T13:32:16;10.70;99.90
12845;DHT22;68700;48.534;9.196;2024-03-23T13:35:38;9.60;1.00
12845;DHT22;68700;48.534;9.196;2024-03-23T13:39:00;9.00;1.00
12845;DHT22;68700;48.534;9.196;2024-03-23T13:42:23;8.70;1.00
12845;DHT22;68700;48.534;9.196;2024-03-23T13:45:47;8.50;1.00
12845;DHT22;68700;48.534;9.196;2024-03-23T13:49:18;8.40;1.00
12845;DHT22;68700;48.534;9.196;2024-03-23T13:52:45;8.80;1.00
12845;DHT22;68700;48.534;9.196;2024-03-23T13:56:08;9.80;1.40
12845;DHT22;68700;48.534;9.196;2024-03-23T13:59:29;10.00;99.90
12845;DHT22;68700;48.534;9.196;2024-03-23T14:02:51;10.00;99.90
12845;DHT22;68700;48.534;9.196;2024-03-23T14:06:12;9.60;99.90
12845;DHT22;68700;48.534;9.196;2024-03-23T14:09:34;9.40;99.90
12845;DHT22;68700;48.534;9.196;2024-03-23T14:12:56;9.50;99.90
12845;DHT22;68700;48.534;9.196;2024-03-23T14:16:20;9.40;99.90
12845;DHT22;68700;48.534;9.196;2024-03-23T14:19:42;8.90;99.90
12845;DHT22;68700;48.534;9.196;2024-03-23T14:23:03;8.70;99.90
12845;DHT22;68700;48.534;9.196;2024-03-23T14:26:25;8.60;99.90
12845;DHT22;68700;48.534;9.196;2024-03-23T14:29:48;9.00;99.90
12845;DHT22;68700;48.534;9.196;2024-03-23T14:33:09;9.50;99.90
12845;DHT22;68700;48.534;9.196;2024-03-23T14:36:31;11.10;99.90
12845;DHT22;68700;48.534;9.196;2024-03-23T14:39:52;12.20;99.90
12845;DHT22;68700;48.534;9.196;2024-03-23T14:43:13;13.60;99.90
12845;DHT22;68700;48.534;9.196;2024-03-23T14:46:37;13.90;99.90
12845;DHT22;68700;48.534;9.196;2024-03-23T14:49:58;13.40;99.90
12845;DHT22;68700;48.534;9.196;2024-03-23T14:53:21;12.60;99.90
12845;DHT22;68700;48.534;9.196;2024-03-23T14:56:43;11.70;99.90
12845;DHT22;68700;48.534;9.196;2024-03-23T15:00:05;10.50;99.90
12845;DHT22;68700;48.534;9.196;2024-03-23T15:03:29;9.40;99.90
12845;DHT22;68700;48.534;9.196;2024-03-23T15:06:54;8.60;99.90
12845;DHT22;68700;48.534;9.196;2024-03-23T15:10:16;7.60;1.00
12845;DHT22;68700;48.534;9.196;2024-03-23T15:13:38;6.20;1.00
12845;DHT22;68700;48.534;9.196;2024-03-23T15:17:00;6.30;1.00
12845;DHT22;68700;48.534;9.196;2024-03-23T15:20:22;7.50;1.00
12845;DHT22;68700;48.534;9.196;2024-03-23T15:23:44;8.80;1.00
12845;DHT22;68700;48.534;9.196;2024-03-23T15:27:05;9.50;1.00
12845;DHT22;68700;48.534;9.196;2024-03-23T15:30:29;9.80;1.00
12845;DHT22;68700;48.534;9.196;2024-03-23T15:33:51;9.80;1.00
12845;DHT22;68700;48.534;9.196;2024-03-23T15:37:14;8.70;1.00
12845;DHT22;68700;48.534;9.196;2024-03-23T15:40:35;7.90;1.00
12845;DHT22;68700;48.534;9.196;2024-03-23T15:43:57;7.30;1.00
12845;DHT22;68700;48.534;9.196;2024-03-23T15:47:18;7.20;1.00
12845;DHT22;68700;48.534;9.196;2024-03-23T15:50:50;7.30;1.00
12845;DHT22;68700;48.534;9.196;2024-03-23T15:54:12;8.00;1.00
12845;DHT22;68700;48.534;9.196;2024-03-23T15:57:34;9.30;1.00
12845;DHT22;68700;48.534;9.196;2024-03-23T16:00:56;9.40;1.00
12845;DHT22;68700;48.534;9.196;2024-03-23T16:04:18;10.70;99.90
12845;DHT22;68700;48.534;9.196;2024-03-23T16:07:39;10.40;99.90
12845;DHT22;68700;48.534;9.196;2024-03-23T16:11:03;9.40;99.90
12845;DHT22;68700;48.534;9.196;2024-03-23T16:14:24;8.10;1.00
12845;DHT22;68700;48.534;9.196;2024-03-23T16:17:46;7.70;1.00
12845;DHT22;68700;48.534;9.196;2024-03-23T16:21:07;7.60;1.00
12845;DHT22;68700;48.534;9.196;2024-03-23T16:24:29;7.60;1.00
12845;DHT22;68700;48.534;9.196;2024-03-23T16:27:53;7.60;1.00
12845;DHT22;68700;48.534;9.196;2024-03-23T16:31:15;7.50;1.00
12845;DHT22;68700;48.534;9.196;2024-03-23T16:34:37;7.30;1.00
12845;DHT22;68700;48.534;9.196;2024-03-23T16:37:58;7.40;1.00
12845;DHT22;68700;48.534;9.196;2024-03-23T16:41:20;8.30;1.00
12845;DHT22;68700;48.534;9.196;2024-03-23T16:44:43;8.70;1.00
12845;DHT22;68700;48.534;9.196;2024-03-23T16:48:06;8.80;1.00
12845;DHT22;68700;48.534;9.196;2024-03-23T16:51:27;8.50;1.00
12845;DHT22;68700;48.534;9.196;2024-03-23T16:54:48;8.10;1.00
12845;DHT22;68700;48.534;9.196;2024-03-23T16:58:09;7.80;1.00
12845;DHT22;68700;48.534;9.196;2024-03-23T17:01:32;7.50;1.00
12845;DHT22;68700;48.534;9.196;2024-03-23T17:04:55;7.30;1.00
12845;DHT22;68700;48.534;9.196;2024-03-23T17:08:17;7.10;1.00
12845;DHT22;68700;48.534;9.196;2024-03-23T17:11:39;6.80;1.00
12845;DHT22;68700;48.534;9.196;2024-03-23T17:15:04;6.60;1.00
12845;DHT22;68700;48.534;9.196;2024-03-23T17:18:29;6.40;1.00
12845;DHT22;68700;48.534;9.196;2024-03-23T17:21:50;6.20;1.00
12845;DHT22;68700;48.534;9.196;2024-03-23T17:25:11;6.10;1.00
12845;DHT22;68700;48.534;9.196;2024-03-23T17:28:33;6.10;1.00
12845;DHT22;68700;48.534;9.196;2024-03-23T17:31:55;6.00;1.00
12845;DHT22;68700;48.534;9.196;2024-03-23T17:35:18;5.80;1.00
12845;DHT22;68700;48.534;9.196;2024-03-23T17:38:41;5.80;1.00
12845;DHT22;68700;48.534;9.196;2024-03-23T17:42:03;5.90;1.00
12845;DHT22;68700;48.534;9.196;2024-03-23T17:45:25;6.00;1.00
12845;DHT22;68700;48.534;9.196;2024-03-23T17:48:46;6.10;1.00
12845;DHT22;68700;48.534;9.196;2024-03-23T17:52:12;6.20;1.00
12845;DHT22;68700;48.534;9.196;2024-03-23T17:55:34;6.20;1.00
12845;DHT22;68700;48.534;9.196;2024-03-23T17:58:56;6.20;1.00
12845;DHT22;68700;48.534;9.196;2024-03-23T18:02:18;6.10;1.00
12845;DHT22;68700;48.534;9.196;2024-03-23T18:05:39;5.90;1.00
12845;DHT22;68700;48.534;9.196;2024-03-23T18:09:03;5.90;1.00
12845;DHT22;68700;48.534;9.196;2024-03-23T18:12:25;5.60;1.00
12845;DHT22;68700;48.534;9.196;2024-03-23T18:15:55;5.40;1.00
12845;DHT22;68700;48.534;9.196;2024-03-23T18:19:17;5.40;1.00
12845;DHT22;68700;48.534;9.196;2024-03-23T18:22:39;5.30;1.00
12845;DHT22;68700;48.534;9.196;2024-03-23T18:26:02;5.20;1.00
12845;DHT22;68700;48.534;9.196;2024-03-23T18:29:24;5.20;1.00
12845;DHT22;68700;48.534;9.196;2024-03-23T18:32:46;5.10;1.00
12845;DHT22;68700;48.534;9.196;2024-03-23T18:36:08;5.00;1.00
12845;DHT22;68700;48.534;9.196;2024-03-23T18:39:31;5.00;1.00
12845;DHT22;68700;48.534;9.196;2024-03-23T18:42:54;5.00;1.00
12845;DHT22;68700;48.534;9.196;2024-03-23T18:46:16;4.90;1.00
12845;DHT22;68700;48.534;9.196;2024-03-23T18:49:38;4.90;1.00
12845;DHT22;68700;48.534;9.196;2024-03-23T18:53:00;4.80;1.00
12845;DHT22;68700;48.534;9.196;2024-03-23T18:56:22;4.80;1.00
12845;DHT22;68700;48.534;9.196;2024-03-23T18:59:45;4.80;1.00
12845;DHT22;68700;48.534;9.196;2024-03-23T19:03:06;4.80;1.00
12845;DHT22;68700;48.534;9.196;2024-03-23T19:06:28;4.70;1.00
12845;DHT22;68700;48.534;9.196;2024-03-23T19:09:50;4.70;1.00
12845;DHT22;68700;48.534;9.196;2024-03-23T19:13:12;4.70;1.00
12845;DHT22;68700;48.534;9.196;2024-03-23T19:16:34;4.70;1.00
12845;DHT22;68700;48.534;9.196;2024-03-23T19:19:56;4.70;1.00
12845;DHT22;68700;48.534;9.196;2024-03-23T19:23:18;4.70;1.00
12845;DHT22;68700;48.534;9.196;2024-03-23T19:26:39;4.70;1.00
12845;DHT22;68700;48.534;9.196;2024-03-23T19:30:01;4.70;1.00
12845;DHT22;68700;48.534;9.196;2024-03-23T19:33:26;4.70;1.00
12845;DHT22;68700;48.534;9.196;2024-03-23T19:36:47;4.70;1.00
12845;DHT22;68700;48.534;9.196;2024-03-23T19:40:10;4.70;1.00
12845;DHT22;68700;48.534;9.196;2024-03-23T19:43:31;4.60;1.00
12845;DHT22;68700;48.534;9.196;2024-03-23T19:46:53;4.50;1.00
12845;DHT22;68700;48.534;9.196;2024-03-23T19:50:15;4.50;1.00
12845;DHT22;68700;48.534;9.196;2024-03-23T19:53:37;4.40;1.00
12845;DHT22;68700;48.534;9.196;2024-03-23T19:56:58;4.40;1.00
12845;DHT22;68700;48.534;9.196;2024-03-23T20:00:21;4.40;1.00
12845;DHT22;68700;48.534;9.196;2024-03-23T20:03:44;4.30;1.00
12845;DHT22;68700;48.534;9.196;2024-03-23T20:07:06;4.10;1.00
12845;DHT22;68700;48.534;9.196;2024-03-23T20:10:28;4.00;1.00
12845;DHT22;68700;48.534;9.196;2024-03-23T20:13:50;4.00;1.00
12845;DHT22;68700;48.534;9.196;2024-03-23T20:17:11;3.90;1.00
12845;DHT22;68700;48.534;9.196;2024-03-23T20:20:33;3.90;1.00
12845;DHT22;68700;48.534;9.196;2024-03-23T20:23:57;3.90;1.00
12845;DHT22;68700;48.534;9.196;2024-03-23T20:27:18;3.90;1.00
12845;DHT22;68700;48.534;9.196;2024-03-23T20:30:40;3.90;1.00
12845;DHT22;68700;48.534;9.196;2024-03-23T20:34:02;3.90;1.00
12845;DHT22;68700;48.534;9.196;2024-03-23T20:37:25;3.90;1.00
12845;DHT22;68700;48.534;9.196;2024-03-23T20:40:51;4.00;1.00
12845;DHT22;68700;48.534;9.196;2024-03-23T20:44:13;4.00;1.00
12845;DHT22;68700;48.534;9.196;2024-03-23T20:47:35;4.00;1.00
12845;DHT22;68700;48.534;9.196;2024-03-23T20:50:59;4.00;1.00
12845;DHT22;68700;48.534;9.196;2024-03-23T20:54:21;4.10;1.00
12845;DHT22;68700;48.534;9.196;2024-03-23T20:57:44;4.20;1.00
12845;DHT22;68700;48.534;9.196;2024-03-23T21:01:06;4.20;1.00
12845;DHT22;68700;48.534;9.196;2024-03-23T21:04:30;4.20;1.00
12845;DHT22;68700;48.534;9.196;2024-03-23T21:07:52;4.30;1.00
12845;DHT22;68700;48.534;9.196;2024-03-23T21:11:12;4.30;1.00
12845;DHT22;68700;48.534;9.196;2024-03-23T21:14:35;4.30;1.00
12845;DHT22;68700;48.534;9.196;2024-03-23T21:17:57;4.40;1.00
12845;DHT22;68700;48.534;9.196;2024-03-23T21:21:18;4.30;1.00
12845;DHT22;68700;48.534;9.196;2024-03-23T21:24:40;4.30;1.00
12845;DHT22;68700;48.534;9.196;2024-03-23T21:28:02;4.30;1.00
12845;DHT22;68700;48.534;9.196;2024-03-23T21:31:26;4.30;1.00
12845;DHT22;68700;48.534;9.196;2024-03-23T21:34:48;4.30;1.00
12845;DHT22;68700;48.534;9.196;2024-03-23T21:38:10;4.40;1.00
12845;DHT22;68700;48.534;9.196;2024-03-23T21:41:30;4.40;1.00
12845;DHT22;68700;48.534;9.196;2024-03-23T21:44:52;4.40;1.00
12845;DHT22;68700;48.534;9.196;2024-03-23T21:48:15;4.40;1.00
12845;DHT22;68700;48.534;9.196;2024-03-23T21:51:37;4.40;1.00
12845;DHT22;68700;48.534;9.196;2024-03-23T21:54:59;4.40;1.00
12845;DHT22;68700;48.534;9.196;2024-03-23T21:58:22;4.40;1.00
12845;DHT22;68700;48.534;9.196;2024-03-23T22:01:44;4.40;1.00
12845;DHT22;68700;48.534;9.196;2024-03-23T22:05:07;4.30;1.00
12845;DHT22;68700;48.534;9.196;2024-03-23T22:08:30;4.30;1.00
12845;DHT22;68700;48.534;9.196;2024-03-23T22:11:52;4.30;1.00
12845;DHT22;68700;48.534;9.196;2024-03-23T22:15:14;4.20;1.00
12845;DHT22;68700;48.534;9.196;2024-03-23T22:18:36;4.30;1.00
12845;DHT22;68700;48.534;9.196;2024-03-23T22:21:59;4.20;1.00
12845;DHT22;68700;48.534;9.196;2024-03-23T22:25:21;4.20;1.00
12845;DHT22;68700;48.534;9.196;2024-03-23T22:28:46;4.10;1.00
12845;DHT22;68700;48.534;9.196;2024-03-23T22:32:07;4.10;1.00
12845;DHT22;68700;48.534;9.196;2024-03-23T22:35:28;4.10;1.00
12845;DHT22;68700;48.534;9.196;2024-03-23T22:38:51;4.10;1.00